CES754 VDSA-ZPPP
Flight info
| Callsign | CES754 |
|---|---|
| Flight time | 1h 48m |
| Altitude | 35000 |
| Route | BIDEM R345 ROT R470 VTN B218 SAGAG/K0841S1065 A581 ELASU |
| Aircraft | A320/M-SDE3FGHIRWY/LB1 |
Departure
| Time | 2026-05-08 09:54 |
|---|---|
| Airport | Siem Reap-Angkor International Airport (VDSA) |
Arrival
| Time | 2026-05-08 11:43 |
|---|---|
| Airport | Kunming Changshui International Airport (ZPPP) |
| Time | Latitude | Longitude | Altitude | Speed | Heading |
|---|---|---|---|---|---|
| 2026-05-08 09:46 | 13.37398 | 104.22177 | 211 ft | 0 kts | 45° |
| 2026-05-08 09:47 | 13.37391 | 104.22170 | 211 ft | 3 kts | 45° |
| 2026-05-08 09:48 | 13.37379 | 104.22157 | 390 ft | 3 kts | 45° |
| 2026-05-08 09:48 | 13.37366 | 104.22144 | 211 ft | 2 kts | 45° |
| 2026-05-08 09:48 | 13.37356 | 104.22130 | 213 ft | 3 kts | 76° |
| 2026-05-08 09:48 | 13.37354 | 104.22123 | 210 ft | 0 kts | 89° |
| 2026-05-08 09:49 | 13.37354 | 104.22126 | 212 ft | 1 kts | 89° |
| 2026-05-08 09:50 | 13.37342 | 104.22142 | 210 ft | 6 kts | 144° |
| 2026-05-08 09:50 | 13.37282 | 104.22185 | 210 ft | 16 kts | 145° |
| 2026-05-08 09:50 | 13.37170 | 104.22259 | 209 ft | 21 kts | 136° |
| 2026-05-08 09:50 | 13.37181 | 104.22360 | 213 ft | 17 kts | 52° |
| 2026-05-08 09:51 | 13.37280 | 104.22477 | 213 ft | 25 kts | 49° |
| 2026-05-08 09:51 | 13.37402 | 104.22609 | 210 ft | 26 kts | 47° |
| 2026-05-08 09:51 | 13.37527 | 104.22749 | 213 ft | 27 kts | 46° |
| 2026-05-08 09:51 | 13.37641 | 104.22874 | 210 ft | 25 kts | 46° |
| 2026-05-08 09:52 | 13.37760 | 104.23007 | 211 ft | 23 kts | 47° |
| 2026-05-08 09:52 | 13.37873 | 104.23132 | 215 ft | 25 kts | 47° |
| 2026-05-08 09:52 | 13.37985 | 104.23262 | 212 ft | 24 kts | 47° |
| 2026-05-08 09:52 | 13.38096 | 104.23389 | 217 ft | 21 kts | 49° |
| 2026-05-08 09:53 | 13.38051 | 104.23498 | 208 ft | 20 kts | 138° |
| 2026-05-08 09:53 | 13.37966 | 104.23491 | 214 ft | 15 kts | 229° |
| 2026-05-08 09:53 | 13.37788 | 104.23291 | 213 ft | 70 kts | 227° |
| 2026-05-08 09:53 | 13.37330 | 104.22774 | 212 ft | 123 kts | 228° |
| 2026-05-08 09:54 | 13.36655 | 104.22013 | 216 ft | 163 kts | 227° |
| 2026-05-08 09:54 | 13.35847 | 104.21110 | 540 ft | 176 kts | 226° |
| 2026-05-08 09:54 | 13.35035 | 104.20159 | 1055 ft | 178 kts | 234° |
| 2026-05-08 09:54 | 13.34599 | 104.18977 | 1622 ft | 179 kts | 268° |
| 2026-05-08 09:55 | 13.34866 | 104.17730 | 2015 ft | 188 kts | 302° |
| 2026-05-08 09:55 | 13.35884 | 104.16817 | 2193 ft | 207 kts | 340° |
| 2026-05-08 09:55 | 13.37368 | 104.16779 | 2389 ft | 229 kts | 22° |
| 2026-05-08 09:55 | 13.38713 | 104.17762 | 2699 ft | 251 kts | 44° |
| 2026-05-08 09:56 | 13.39954 | 104.19097 | 3325 ft | 262 kts | 46° |
| 2026-05-08 09:56 | 13.41448 | 104.20117 | 4104 ft | 268 kts | 17° |
| 2026-05-08 09:56 | 13.43312 | 104.20158 | 4872 ft | 274 kts | 348° |
| 2026-05-08 09:56 | 13.45126 | 104.19516 | 5660 ft | 279 kts | 337° |
| 2026-05-08 09:57 | 13.48636 | 104.17669 | 7052 ft | 288 kts | 334° |
| 2026-05-08 09:57 | 13.50429 | 104.16725 | 7751 ft | 291 kts | 335° |
| 2026-05-08 09:57 | 13.52265 | 104.15814 | 8445 ft | 295 kts | 337° |
| 2026-05-08 09:58 | 13.54142 | 104.14937 | 9134 ft | 298 kts | 338° |
| 2026-05-08 09:58 | 13.56050 | 104.14079 | 9795 ft | 301 kts | 339° |
| 2026-05-08 09:58 | 13.57995 | 104.13221 | 10271 ft | 311 kts | 339° |
| 2026-05-08 09:58 | 13.60059 | 104.12323 | 10395 ft | 333 kts | 339° |
| 2026-05-08 09:59 | 13.62261 | 104.11368 | 10511 ft | 353 kts | 339° |
| 2026-05-08 09:59 | 13.64580 | 104.10361 | 10631 ft | 371 kts | 339° |
| 2026-05-08 09:59 | 13.67012 | 104.09303 | 10749 ft | 387 kts | 338° |
| 2026-05-08 09:59 | 13.69542 | 104.08200 | 10891 ft | 402 kts | 338° |
| 2026-05-08 10:00 | 13.72139 | 104.07063 | 11239 ft | 408 kts | 338° |
| 2026-05-08 10:00 | 13.74762 | 104.05909 | 11703 ft | 412 kts | 338° |
| 2026-05-08 10:00 | 13.77407 | 104.04745 | 12178 ft | 415 kts | 338° |
| 2026-05-08 10:00 | 13.80072 | 104.03574 | 12652 ft | 418 kts | 338° |
| 2026-05-08 10:01 | 13.82752 | 104.02397 | 13119 ft | 421 kts | 338° |
| 2026-05-08 10:01 | 13.85416 | 104.01237 | 13570 ft | 423 kts | 339° |
| 2026-05-08 10:01 | 13.88143 | 104.00073 | 13982 ft | 426 kts | 339° |
| 2026-05-08 10:01 | 13.90900 | 103.98913 | 14401 ft | 429 kts | 339° |
| 2026-05-08 10:02 | 13.93672 | 103.97757 | 14820 ft | 431 kts | 339° |
| 2026-05-08 10:02 | 13.96463 | 103.96597 | 15221 ft | 434 kts | 339° |
| 2026-05-08 10:02 | 13.99270 | 103.95422 | 15622 ft | 436 kts | 339° |
| 2026-05-08 10:02 | 14.02081 | 103.94234 | 16003 ft | 439 kts | 338° |
| 2026-05-08 10:03 | 14.04912 | 103.93035 | 16390 ft | 441 kts | 338° |
| 2026-05-08 10:03 | 14.07758 | 103.91831 | 16764 ft | 444 kts | 338° |
| 2026-05-08 10:03 | 14.10626 | 103.90622 | 17137 ft | 446 kts | 338° |
| 2026-05-08 10:03 | 14.13507 | 103.89406 | 17513 ft | 449 kts | 338° |
| 2026-05-08 10:04 | 14.16399 | 103.88184 | 17875 ft | 451 kts | 338° |
| 2026-05-08 10:04 | 14.19311 | 103.86951 | 18219 ft | 454 kts | 338° |
| 2026-05-08 10:04 | 14.22239 | 103.85708 | 18521 ft | 456 kts | 338° |
| 2026-05-08 10:04 | 14.25138 | 103.84478 | 18825 ft | 458 kts | 338° |
| 2026-05-08 10:05 | 14.28096 | 103.83225 | 19131 ft | 460 kts | 338° |
| 2026-05-08 10:05 | 14.31063 | 103.81968 | 19428 ft | 463 kts | 338° |
| 2026-05-08 10:05 | 14.34065 | 103.80745 | 19726 ft | 465 kts | 342° |
| 2026-05-08 10:05 | 14.37207 | 103.79925 | 20018 ft | 467 kts | 351° |
| 2026-05-08 10:06 | 14.40441 | 103.79619 | 20307 ft | 468 kts | 360° |
| 2026-05-08 10:06 | 14.43715 | 103.79593 | 20599 ft | 471 kts | 0° |
| 2026-05-08 10:06 | 14.46992 | 103.79568 | 20875 ft | 473 kts | 360° |
| 2026-05-08 10:06 | 14.50293 | 103.79538 | 21142 ft | 475 kts | 360° |
| 2026-05-08 10:07 | 14.53609 | 103.79505 | 21407 ft | 477 kts | 360° |
| 2026-05-08 10:07 | 14.56933 | 103.79473 | 21668 ft | 479 kts | 360° |
| 2026-05-08 10:07 | 14.60280 | 103.79441 | 21924 ft | 481 kts | 360° |
| 2026-05-08 10:07 | 14.63634 | 103.79410 | 22164 ft | 483 kts | 360° |
| 2026-05-08 10:08 | 14.66987 | 103.79379 | 22521 ft | 482 kts | 360° |
| 2026-05-08 10:08 | 14.70336 | 103.79348 | 22864 ft | 481 kts | 360° |
| 2026-05-08 10:08 | 14.73684 | 103.79315 | 23204 ft | 481 kts | 359° |
| 2026-05-08 10:08 | 14.76984 | 103.79282 | 23514 ft | 480 kts | 359° |
| 2026-05-08 10:09 | 14.80333 | 103.79247 | 23803 ft | 480 kts | 359° |
| 2026-05-08 10:09 | 14.83665 | 103.79210 | 24100 ft | 479 kts | 359° |
| 2026-05-08 10:09 | 14.86990 | 103.79169 | 24402 ft | 477 kts | 359° |
| 2026-05-08 10:09 | 14.90308 | 103.79126 | 24713 ft | 476 kts | 359° |
| 2026-05-08 10:10 | 14.93619 | 103.79083 | 25014 ft | 476 kts | 359° |
| 2026-05-08 10:10 | 14.95813 | 103.79054 | 25224 ft | 475 kts | 360° |
| 2026-05-08 10:10 | 14.99114 | 103.79007 | 25548 ft | 474 kts | 359° |
| 2026-05-08 10:10 | 15.02405 | 103.78952 | 25874 ft | 473 kts | 359° |
| 2026-05-08 10:11 | 15.05691 | 103.78894 | 26201 ft | 472 kts | 359° |
| 2026-05-08 10:11 | 15.10032 | 103.78816 | 26644 ft | 470 kts | 359° |
| 2026-05-08 10:11 | 15.13307 | 103.78757 | 26989 ft | 469 kts | 359° |
| 2026-05-08 10:11 | 15.15508 | 103.78718 | 27222 ft | 468 kts | 360° |
| 2026-05-08 10:12 | 15.18760 | 103.78663 | 27576 ft | 467 kts | 360° |
| 2026-05-08 10:12 | 15.21965 | 103.78615 | 27933 ft | 466 kts | 360° |
| 2026-05-08 10:12 | 15.25198 | 103.78570 | 28299 ft | 465 kts | 360° |
| 2026-05-08 10:12 | 15.28423 | 103.78521 | 28675 ft | 463 kts | 360° |
| 2026-05-08 10:13 | 15.31641 | 103.78471 | 29067 ft | 462 kts | 360° |
| 2026-05-08 10:13 | 15.34852 | 103.78422 | 29469 ft | 460 kts | 360° |
| 2026-05-08 10:13 | 15.38054 | 103.78370 | 29863 ft | 459 kts | 360° |
| 2026-05-08 10:13 | 15.41244 | 103.78315 | 30202 ft | 457 kts | 360° |
| 2026-05-08 10:14 | 15.44422 | 103.78261 | 30529 ft | 456 kts | 360° |
| 2026-05-08 10:14 | 15.47601 | 103.78211 | 30849 ft | 456 kts | 360° |
| 2026-05-08 10:14 | 15.50769 | 103.78163 | 31175 ft | 455 kts | 360° |
| 2026-05-08 10:14 | 15.53925 | 103.78118 | 31514 ft | 454 kts | 360° |
| 2026-05-08 10:15 | 15.57039 | 103.78071 | 31844 ft | 453 kts | 360° |
| 2026-05-08 10:15 | 15.60223 | 103.78020 | 32187 ft | 452 kts | 359° |
| 2026-05-08 10:15 | 15.63322 | 103.77970 | 32521 ft | 451 kts | 359° |
| 2026-05-08 10:15 | 15.66456 | 103.77921 | 32862 ft | 450 kts | 359° |
| 2026-05-08 10:16 | 15.69585 | 103.77873 | 33185 ft | 449 kts | 359° |
| 2026-05-08 10:16 | 15.72708 | 103.77825 | 33497 ft | 449 kts | 359° |
| 2026-05-08 10:16 | 15.75833 | 103.77775 | 33787 ft | 449 kts | 359° |
| 2026-05-08 10:16 | 15.78952 | 103.77727 | 34049 ft | 448 kts | 359° |
| 2026-05-08 10:17 | 15.82074 | 103.77679 | 34320 ft | 448 kts | 359° |
| 2026-05-08 10:17 | 15.85183 | 103.77629 | 34593 ft | 447 kts | 359° |
| 2026-05-08 10:17 | 15.88291 | 103.77578 | 34793 ft | 447 kts | 359° |
| 2026-05-08 10:17 | 15.91405 | 103.77530 | 34845 ft | 450 kts | 359° |
| 2026-05-08 10:18 | 15.97758 | 103.77430 | 34843 ft | 463 kts | 358° |
| 2026-05-08 10:18 | 16.04263 | 103.77329 | 34838 ft | 470 kts | 359° |
| 2026-05-08 10:19 | 16.10717 | 103.76446 | 34836 ft | 469 kts | 342° |
| 2026-05-08 10:20 | 16.19096 | 103.71421 | 34838 ft | 468 kts | 322° |
| 2026-05-08 10:20 | 16.24308 | 103.67342 | 34848 ft | 469 kts | 323° |
| 2026-05-08 10:21 | 16.29525 | 103.63267 | 34859 ft | 469 kts | 323° |
| 2026-05-08 10:21 | 16.34747 | 103.59191 | 34872 ft | 469 kts | 323° |
| 2026-05-08 10:22 | 16.39968 | 103.55109 | 34888 ft | 469 kts | 323° |
| 2026-05-08 10:22 | 16.45187 | 103.51021 | 34891 ft | 469 kts | 323° |
| 2026-05-08 10:23 | 16.50411 | 103.46933 | 34893 ft | 469 kts | 323° |
| 2026-05-08 10:23 | 16.55591 | 103.42868 | 34899 ft | 469 kts | 323° |
| 2026-05-08 10:24 | 16.60816 | 103.38774 | 34905 ft | 469 kts | 323° |
| 2026-05-08 10:24 | 16.66039 | 103.34686 | 34911 ft | 469 kts | 323° |
| 2026-05-08 10:25 | 16.71254 | 103.30588 | 34913 ft | 469 kts | 323° |
| 2026-05-08 10:25 | 16.76465 | 103.26489 | 34918 ft | 469 kts | 323° |
| 2026-05-08 10:26 | 16.81675 | 103.22394 | 34920 ft | 469 kts | 323° |
| 2026-05-08 10:26 | 16.86847 | 103.18329 | 34918 ft | 468 kts | 323° |
| 2026-05-08 10:27 | 16.92050 | 103.14233 | 34920 ft | 468 kts | 323° |
| 2026-05-08 10:27 | 16.97248 | 103.10132 | 34921 ft | 468 kts | 323° |
| 2026-05-08 10:28 | 17.02441 | 103.06033 | 34923 ft | 468 kts | 323° |
| 2026-05-08 10:28 | 17.07631 | 103.01935 | 34925 ft | 468 kts | 323° |
| 2026-05-08 10:29 | 17.12818 | 102.97831 | 34919 ft | 467 kts | 322° |
| 2026-05-08 10:29 | 17.17995 | 102.93727 | 34917 ft | 467 kts | 322° |
| 2026-05-08 10:30 | 17.23171 | 102.89636 | 34913 ft | 466 kts | 322° |
| 2026-05-08 10:30 | 17.28338 | 102.85546 | 34910 ft | 466 kts | 322° |
| 2026-05-08 10:31 | 17.33472 | 102.81480 | 34905 ft | 466 kts | 322° |
| 2026-05-08 10:31 | 17.38785 | 102.77609 | 34906 ft | 466 kts | 332° |
| 2026-05-08 10:32 | 17.44811 | 102.75135 | 34905 ft | 466 kts | 340° |
| 2026-05-08 10:32 | 17.50926 | 102.72859 | 34907 ft | 466 kts | 340° |
| 2026-05-08 10:33 | 17.57029 | 102.70567 | 34911 ft | 466 kts | 339° |
| 2026-05-08 10:33 | 17.63096 | 102.68292 | 34912 ft | 466 kts | 339° |
| 2026-05-08 10:34 | 17.69072 | 102.66053 | 34916 ft | 465 kts | 339° |
| 2026-05-08 10:34 | 17.75166 | 102.63769 | 34911 ft | 465 kts | 339° |
| 2026-05-08 10:35 | 17.81255 | 102.61488 | 34910 ft | 464 kts | 339° |
| 2026-05-08 10:35 | 17.87335 | 102.59196 | 34905 ft | 464 kts | 339° |
| 2026-05-08 10:36 | 17.93414 | 102.56908 | 34904 ft | 464 kts | 339° |
| 2026-05-08 10:36 | 17.99499 | 102.54629 | 34904 ft | 464 kts | 340° |
| 2026-05-08 10:37 | 18.05795 | 102.53128 | 34900 ft | 465 kts | 348° |
| 2026-05-08 10:37 | 18.12122 | 102.51918 | 34895 ft | 466 kts | 348° |
| 2026-05-08 10:38 | 18.18498 | 102.50696 | 34893 ft | 466 kts | 348° |
| 2026-05-08 10:38 | 18.24883 | 102.49475 | 34901 ft | 466 kts | 348° |
| 2026-05-08 10:39 | 18.31268 | 102.48255 | 34899 ft | 467 kts | 348° |
| 2026-05-08 10:39 | 18.37659 | 102.47019 | 34906 ft | 467 kts | 348° |
| 2026-05-08 10:40 | 18.44043 | 102.45782 | 34906 ft | 467 kts | 348° |
| 2026-05-08 10:40 | 18.50432 | 102.44543 | 34909 ft | 467 kts | 348° |
| 2026-05-08 10:41 | 18.56829 | 102.43313 | 34918 ft | 467 kts | 348° |
| 2026-05-08 10:41 | 18.63180 | 102.42089 | 34915 ft | 467 kts | 348° |
| 2026-05-08 10:42 | 18.69571 | 102.40857 | 34921 ft | 467 kts | 348° |
| 2026-05-08 10:42 | 18.75960 | 102.39625 | 34924 ft | 467 kts | 348° |
| 2026-05-08 10:43 | 18.82348 | 102.38387 | 34930 ft | 467 kts | 348° |
| 2026-05-08 10:43 | 18.88741 | 102.37143 | 34933 ft | 467 kts | 348° |
| 2026-05-08 10:44 | 18.95131 | 102.35910 | 34939 ft | 467 kts | 348° |
| 2026-05-08 10:44 | 19.01524 | 102.34670 | 34947 ft | 467 kts | 348° |
| 2026-05-08 10:45 | 19.07917 | 102.33429 | 34950 ft | 467 kts | 348° |
| 2026-05-08 10:45 | 19.14271 | 102.32204 | 34953 ft | 467 kts | 348° |
| 2026-05-08 10:46 | 19.20663 | 102.30955 | 34958 ft | 467 kts | 347° |
| 2026-05-08 10:46 | 19.27065 | 102.29704 | 34955 ft | 467 kts | 347° |
| 2026-05-08 10:47 | 19.33463 | 102.28460 | 34960 ft | 467 kts | 347° |
| 2026-05-08 10:47 | 19.39857 | 102.27214 | 34960 ft | 467 kts | 347° |
| 2026-05-08 10:48 | 19.46257 | 102.25964 | 34956 ft | 467 kts | 347° |
| 2026-05-08 10:48 | 19.52654 | 102.24721 | 34951 ft | 467 kts | 347° |
| 2026-05-08 10:49 | 19.59054 | 102.23476 | 34938 ft | 467 kts | 347° |
| 2026-05-08 10:49 | 19.65450 | 102.22215 | 34925 ft | 468 kts | 347° |
| 2026-05-08 10:50 | 19.71845 | 102.20957 | 34910 ft | 467 kts | 347° |
| 2026-05-08 10:50 | 19.78240 | 102.19707 | 34908 ft | 467 kts | 347° |
| 2026-05-08 10:51 | 19.84591 | 102.18461 | 34903 ft | 467 kts | 347° |
| 2026-05-08 10:51 | 19.90960 | 102.17118 | 34906 ft | 465 kts | 341° |
| 2026-05-08 10:52 | 19.96981 | 102.14697 | 34905 ft | 462 kts | 335° |
| 2026-05-08 10:52 | 20.02951 | 102.12154 | 34908 ft | 462 kts | 335° |
| 2026-05-08 10:53 | 20.08883 | 102.09632 | 34918 ft | 462 kts | 335° |
| 2026-05-08 10:53 | 20.14850 | 102.07096 | 34925 ft | 462 kts | 335° |
| 2026-05-08 10:54 | 20.20818 | 102.04549 | 34937 ft | 462 kts | 335° |
| 2026-05-08 10:54 | 20.26790 | 102.01998 | 34947 ft | 462 kts | 335° |
| 2026-05-08 10:55 | 20.32756 | 101.99455 | 34954 ft | 462 kts | 335° |
| 2026-05-08 10:55 | 20.38734 | 101.96905 | 34958 ft | 462 kts | 335° |
| 2026-05-08 10:56 | 20.44666 | 101.94376 | 34964 ft | 462 kts | 335° |
| 2026-05-08 10:56 | 20.50640 | 101.91825 | 34960 ft | 462 kts | 335° |
| 2026-05-08 10:57 | 20.56602 | 101.89264 | 34961 ft | 462 kts | 335° |
| 2026-05-08 10:57 | 20.65558 | 101.85414 | 34963 ft | 462 kts | 335° |
| 2026-05-08 10:58 | 20.71532 | 101.82854 | 34960 ft | 462 kts | 335° |
| 2026-05-08 10:58 | 20.77501 | 101.80287 | 34961 ft | 462 kts | 335° |
| 2026-05-08 10:59 | 20.83469 | 101.77721 | 34962 ft | 462 kts | 335° |
| 2026-05-08 10:59 | 20.89433 | 101.75155 | 34964 ft | 462 kts | 335° |
| 2026-05-08 11:00 | 20.95362 | 101.72604 | 34958 ft | 462 kts | 335° |
| 2026-05-08 11:00 | 21.01322 | 101.70040 | 34953 ft | 462 kts | 335° |
| 2026-05-08 11:01 | 21.07286 | 101.67475 | 34954 ft | 461 kts | 335° |
| 2026-05-08 11:01 | 21.13241 | 101.64906 | 34956 ft | 461 kts | 334° |
| 2026-05-08 11:02 | 21.22159 | 101.61049 | 34958 ft | 461 kts | 334° |
| 2026-05-08 11:03 | 21.28118 | 101.58500 | 34965 ft | 461 kts | 335° |
| 2026-05-08 11:03 | 21.34076 | 101.55956 | 34964 ft | 461 kts | 334° |
| 2026-05-08 11:04 | 21.40042 | 101.53406 | 34965 ft | 461 kts | 334° |
| 2026-05-08 11:04 | 21.45955 | 101.50880 | 34966 ft | 460 kts | 334° |
| 2026-05-08 11:05 | 21.51905 | 101.48329 | 34961 ft | 460 kts | 334° |
| 2026-05-08 11:05 | 21.57855 | 101.45772 | 34957 ft | 460 kts | 334° |
| 2026-05-08 11:06 | 21.63802 | 101.43206 | 34958 ft | 460 kts | 334° |
| 2026-05-08 11:06 | 21.69753 | 101.40638 | 34955 ft | 461 kts | 334° |
| 2026-05-08 11:07 | 21.75702 | 101.38079 | 34955 ft | 460 kts | 334° |
| 2026-05-08 11:07 | 21.81659 | 101.35519 | 34951 ft | 461 kts | 334° |
| 2026-05-08 11:08 | 21.87577 | 101.32974 | 34951 ft | 461 kts | 334° |
| 2026-05-08 11:08 | 21.93533 | 101.30398 | 34954 ft | 461 kts | 334° |
| 2026-05-08 11:09 | 21.99494 | 101.27829 | 34954 ft | 461 kts | 334° |
| 2026-05-08 11:09 | 22.05458 | 101.25262 | 34955 ft | 461 kts | 334° |
| 2026-05-08 11:10 | 22.11412 | 101.22693 | 34945 ft | 461 kts | 334° |
| 2026-05-08 11:10 | 22.17378 | 101.20113 | 34947 ft | 462 kts | 334° |
| 2026-05-08 11:11 | 22.23342 | 101.17537 | 34953 ft | 462 kts | 334° |
| 2026-05-08 11:11 | 22.28300 | 101.15392 | 34955 ft | 461 kts | 334° |
| 2026-05-08 11:12 | 22.35217 | 101.12400 | 34955 ft | 461 kts | 334° |
| 2026-05-08 11:12 | 22.41165 | 101.09819 | 34958 ft | 461 kts | 334° |
| 2026-05-08 11:13 | 22.47116 | 101.07240 | 34955 ft | 461 kts | 334° |
| 2026-05-08 11:13 | 22.52108 | 101.05078 | 34956 ft | 461 kts | 333° |
| 2026-05-08 11:14 | 22.58026 | 101.02516 | 34960 ft | 461 kts | 333° |
| 2026-05-08 11:14 | 22.63981 | 100.99927 | 34961 ft | 461 kts | 334° |
| 2026-05-08 11:15 | 22.70319 | 100.98511 | 34960 ft | 475 kts | 355° |
| 2026-05-08 11:15 | 22.73630 | 100.98854 | 34962 ft | 482 kts | 7° |
| 2026-05-08 11:15 | 22.76862 | 100.99922 | 34956 ft | 490 kts | 19° |
| 2026-05-08 11:16 | 22.82841 | 101.03569 | 34945 ft | 495 kts | 27° |
| 2026-05-08 11:16 | 22.88761 | 101.07397 | 34944 ft | 496 kts | 27° |
| 2026-05-08 11:17 | 22.94694 | 101.11219 | 34949 ft | 496 kts | 27° |
| 2026-05-08 11:17 | 23.00591 | 101.15021 | 34952 ft | 497 kts | 27° |
| 2026-05-08 11:18 | 23.06535 | 101.18863 | 34952 ft | 497 kts | 27° |
| 2026-05-08 11:18 | 23.12481 | 101.22710 | 34954 ft | 498 kts | 27° |
| 2026-05-08 11:19 | 23.18437 | 101.26567 | 34959 ft | 498 kts | 27° |
| 2026-05-08 11:19 | 23.24396 | 101.30436 | 34867 ft | 501 kts | 27° |
| 2026-05-08 11:19 | 23.27389 | 101.32377 | 34418 ft | 501 kts | 27° |
| 2026-05-08 11:20 | 23.30380 | 101.34319 | 33975 ft | 501 kts | 27° |
| 2026-05-08 11:20 | 23.33379 | 101.36264 | 33462 ft | 502 kts | 27° |
| 2026-05-08 11:20 | 23.36381 | 101.38212 | 32963 ft | 503 kts | 27° |
| 2026-05-08 11:20 | 23.39351 | 101.40139 | 32477 ft | 504 kts | 27° |
| 2026-05-08 11:21 | 23.42359 | 101.42095 | 31999 ft | 506 kts | 27° |
| 2026-05-08 11:21 | 23.45388 | 101.44067 | 31523 ft | 507 kts | 27° |
| 2026-05-08 11:21 | 23.48410 | 101.46036 | 31060 ft | 507 kts | 27° |
| 2026-05-08 11:21 | 23.51443 | 101.48011 | 30606 ft | 509 kts | 27° |
| 2026-05-08 11:22 | 23.54489 | 101.49996 | 30154 ft | 511 kts | 27° |
| 2026-05-08 11:22 | 23.57541 | 101.51989 | 29648 ft | 512 kts | 27° |
| 2026-05-08 11:22 | 23.60604 | 101.53990 | 29121 ft | 513 kts | 27° |
| 2026-05-08 11:22 | 23.63670 | 101.55992 | 28606 ft | 514 kts | 27° |
| 2026-05-08 11:23 | 23.66742 | 101.57996 | 28106 ft | 516 kts | 27° |
| 2026-05-08 11:23 | 23.69829 | 101.60008 | 27606 ft | 517 kts | 27° |
| 2026-05-08 11:23 | 23.72920 | 101.62026 | 27122 ft | 518 kts | 28° |
| 2026-05-08 11:23 | 23.76014 | 101.64052 | 26645 ft | 519 kts | 28° |
| 2026-05-08 11:24 | 23.79114 | 101.66085 | 26172 ft | 521 kts | 28° |
| 2026-05-08 11:24 | 23.82184 | 101.68099 | 25719 ft | 522 kts | 28° |
| 2026-05-08 11:24 | 23.85293 | 101.70140 | 25263 ft | 522 kts | 28° |
| 2026-05-08 11:24 | 23.88409 | 101.72187 | 24816 ft | 523 kts | 28° |
| 2026-05-08 11:25 | 23.91532 | 101.74239 | 24366 ft | 524 kts | 28° |
| 2026-05-08 11:25 | 23.94647 | 101.76286 | 23935 ft | 522 kts | 28° |
| 2026-05-08 11:25 | 23.97722 | 101.78395 | 23500 ft | 521 kts | 33° |
| 2026-05-08 11:25 | 24.00482 | 101.80947 | 22986 ft | 520 kts | 43° |
| 2026-05-08 11:26 | 24.02993 | 101.83781 | 22483 ft | 517 kts | 44° |
| 2026-05-08 11:26 | 24.05472 | 101.86599 | 21985 ft | 513 kts | 44° |
| 2026-05-08 11:26 | 24.07936 | 101.89408 | 21499 ft | 508 kts | 44° |
| 2026-05-08 11:26 | 24.10372 | 101.92188 | 21019 ft | 504 kts | 44° |
| 2026-05-08 11:27 | 24.12789 | 101.94943 | 20557 ft | 500 kts | 44° |
| 2026-05-08 11:27 | 24.15189 | 101.97671 | 20083 ft | 495 kts | 44° |
| 2026-05-08 11:27 | 24.17568 | 102.00373 | 19633 ft | 491 kts | 44° |
| 2026-05-08 11:27 | 24.19931 | 102.03054 | 19184 ft | 486 kts | 44° |
| 2026-05-08 11:28 | 24.22271 | 102.05710 | 18741 ft | 483 kts | 44° |
| 2026-05-08 11:28 | 24.24590 | 102.08350 | 18304 ft | 479 kts | 44° |
| 2026-05-08 11:28 | 24.26890 | 102.10972 | 17799 ft | 475 kts | 44° |
| 2026-05-08 11:28 | 24.29140 | 102.13538 | 17314 ft | 471 kts | 44° |
| 2026-05-08 11:29 | 24.31395 | 102.16115 | 16821 ft | 466 kts | 44° |
| 2026-05-08 11:29 | 24.33630 | 102.18675 | 16338 ft | 462 kts | 44° |
| 2026-05-08 11:29 | 24.35842 | 102.21206 | 15869 ft | 458 kts | 44° |
| 2026-05-08 11:29 | 24.38033 | 102.23713 | 15395 ft | 454 kts | 44° |
| 2026-05-08 11:30 | 24.40210 | 102.26208 | 14937 ft | 449 kts | 45° |
| 2026-05-08 11:30 | 24.42361 | 102.28671 | 14469 ft | 446 kts | 45° |
| 2026-05-08 11:30 | 24.44499 | 102.31115 | 14032 ft | 441 kts | 45° |
| 2026-05-08 11:30 | 24.46613 | 102.33533 | 13554 ft | 438 kts | 45° |
| 2026-05-08 11:31 | 24.48712 | 102.35939 | 13050 ft | 434 kts | 45° |
| 2026-05-08 11:31 | 24.50783 | 102.38313 | 12547 ft | 426 kts | 45° |
| 2026-05-08 11:31 | 24.52809 | 102.40641 | 12080 ft | 417 kts | 45° |
| 2026-05-08 11:31 | 24.54773 | 102.42898 | 11878 ft | 400 kts | 45° |
| 2026-05-08 11:32 | 24.56644 | 102.45048 | 11890 ft | 379 kts | 45° |
| 2026-05-08 11:32 | 24.58419 | 102.47088 | 11895 ft | 361 kts | 45° |
| 2026-05-08 11:32 | 24.60118 | 102.49040 | 11907 ft | 346 kts | 45° |
| 2026-05-08 11:32 | 24.61746 | 102.50912 | 11912 ft | 331 kts | 45° |
| 2026-05-08 11:33 | 24.63304 | 102.52707 | 11818 ft | 320 kts | 45° |
| 2026-05-08 11:33 | 24.64820 | 102.54451 | 11702 ft | 311 kts | 45° |
| 2026-05-08 11:33 | 24.66288 | 102.56140 | 11582 ft | 301 kts | 45° |
| 2026-05-08 11:33 | 24.67845 | 102.57614 | 11464 ft | 290 kts | 34° |
| 2026-05-08 11:34 | 24.69448 | 102.58905 | 11345 ft | 280 kts | 34° |
| 2026-05-08 11:34 | 24.70986 | 102.60129 | 11170 ft | 266 kts | 30° |
| 2026-05-08 11:34 | 24.72585 | 102.61069 | 10983 ft | 256 kts | 25° |
| 2026-05-08 11:34 | 24.74151 | 102.61947 | 10870 ft | 249 kts | 25° |
| 2026-05-08 11:35 | 24.75650 | 102.62792 | 10784 ft | 235 kts | 25° |
| 2026-05-08 11:35 | 24.77055 | 102.63585 | 10571 ft | 227 kts | 25° |
| 2026-05-08 11:35 | 24.78454 | 102.64372 | 10275 ft | 225 kts | 26° |
| 2026-05-08 11:35 | 24.79779 | 102.65271 | 9962 ft | 224 kts | 38° |
| 2026-05-08 11:36 | 24.80992 | 102.66329 | 9686 ft | 221 kts | 38° |
| 2026-05-08 11:36 | 24.82198 | 102.67391 | 9679 ft | 223 kts | 38° |
| 2026-05-08 11:36 | 24.83418 | 102.68457 | 9688 ft | 225 kts | 38° |
| 2026-05-08 11:36 | 24.84647 | 102.69521 | 9696 ft | 224 kts | 38° |
| 2026-05-08 11:37 | 24.85872 | 102.70581 | 9701 ft | 224 kts | 38° |
| 2026-05-08 11:37 | 24.87101 | 102.71644 | 9708 ft | 225 kts | 38° |
| 2026-05-08 11:37 | 24.88330 | 102.72707 | 9719 ft | 224 kts | 38° |
| 2026-05-08 11:37 | 24.89557 | 102.73769 | 9724 ft | 225 kts | 38° |
| 2026-05-08 11:38 | 24.90790 | 102.74837 | 9737 ft | 225 kts | 38° |
| 2026-05-08 11:38 | 24.92021 | 102.75902 | 9743 ft | 225 kts | 38° |
| 2026-05-08 11:38 | 24.93248 | 102.76966 | 9752 ft | 224 kts | 38° |
| 2026-05-08 11:38 | 24.94479 | 102.78032 | 9762 ft | 225 kts | 38° |
| 2026-05-08 11:39 | 24.95706 | 102.79096 | 9767 ft | 224 kts | 38° |
| 2026-05-08 11:39 | 24.96928 | 102.80155 | 9774 ft | 224 kts | 38° |
| 2026-05-08 11:39 | 24.98157 | 102.81221 | 9782 ft | 224 kts | 39° |
| 2026-05-08 11:39 | 24.99385 | 102.82286 | 9662 ft | 224 kts | 38° |
| 2026-05-08 11:40 | 25.00574 | 102.83317 | 9413 ft | 217 kts | 38° |
| 2026-05-08 11:40 | 25.01746 | 102.84334 | 9133 ft | 210 kts | 39° |
| 2026-05-08 11:40 | 25.02852 | 102.85294 | 8907 ft | 193 kts | 39° |
| 2026-05-08 11:40 | 25.03859 | 102.86168 | 8651 ft | 178 kts | 40° |
| 2026-05-08 11:41 | 25.04814 | 102.86997 | 8429 ft | 172 kts | 39° |
| 2026-05-08 11:41 | 25.05744 | 102.87805 | 8213 ft | 169 kts | 39° |
| 2026-05-08 11:41 | 25.06662 | 102.88603 | 8003 ft | 167 kts | 40° |
| 2026-05-08 11:41 | 25.07565 | 102.89388 | 7769 ft | 163 kts | 39° |
| 2026-05-08 11:42 | 25.08443 | 102.90150 | 7519 ft | 158 kts | 38° |
| 2026-05-08 11:42 | 25.09301 | 102.90890 | 7300 ft | 155 kts | 38° |
| 2026-05-08 11:42 | 25.10138 | 102.91621 | 7079 ft | 153 kts | 37° |
| 2026-05-08 11:42 | 25.10965 | 102.92339 | 6921 ft | 144 kts | 37° |
| 2026-05-08 11:43 | 25.11619 | 102.92908 | 6917 ft | 95 kts | 38° |
| 2026-05-08 11:43 | 25.11946 | 102.93209 | 6900 ft | 33 kts | 58° |
| 2026-05-08 11:43 | 25.12013 | 102.93353 | 6899 ft | 16 kts | 65° |
| 2026-05-08 11:43 | 25.12002 | 102.93439 | 6900 ft | 11 kts | 152° |
| 2026-05-08 11:44 | 25.11953 | 102.93438 | 6900 ft | 0 kts | 199° |